Airfield :







YOU CAN JOIN US ON...

 
LOGIN :

Register | Disclaimer

   EN    FR    IT 

 









Legend :    VFR   Marginal VFR   IFR   Intensive IFR   Very Intensive IFR
Visi :
Ceiling :
>= 8 km
>= 3000ft
5 to 8 km
1000 to 3000 ft
1500m to 5 km
500 to 1000 ft
800 to 1500m
200 to 500 ft
< 800m
< 200 ft
Symbols :   Thunderstorms  Fog  Heavy snow  Heavy precipitations  Wind > 20 kt






- Airport Elevation : 100 ft
- IATA code : PSM


KPSM - Portsmouth International at Pease

CURRENT METAR :
  • 300156Z 21013G20KT 10SM BKN024 BKN250 24/19 A2983 RMK AO2A SLP103 T02410191

EXPIRED METARs :
  • 300056Z 21013G18KT 10SM OVC026 25/19 A2983 RMK AO2A SLP103 T02480189
  • 300021Z 20011G16KT 10SM BKN028 BKN250 25/19 A2983 RMK AO2A SLP103
  • 292356Z 21011G20KT 10SM SCT030 BKN250 26/19 A2982 RMK AO2A SLP100 T02550191 10301 20255 55007

TAF KPSM
Valid from the 30 at 01:00 until the 31 at 00:00 UTC


300038Z 3001/3024 20010G18KT P6SM BKN030
FM300300 20010KT P6SM BKN015
FM301100 22008KT P6SM BKN035
FM301400 25009KT P6SM SCT035
FM301700 27010G18KT P6SM SCT250
KZBW FIR / North America



MET'MAP, your aeronautical weather chart ! - Copyright ORBIFLY December 2007 - Disclaimer

ORBIFLY MET'MAP TEAM :

Programming & Development : Alexandra Zaïnal
Concept & original design : Baudouin d'Aumeries
Assistance for programming : Marc-Olivier Méhu
Technical & hardware support : Manuel Goepfert

Contact : metmap@orbifly.com




SOURCES & CREDITS :

   NOAA